createdAt,value
2019-03-29T00:02:14.090Z,10.84
2019-03-29T00:05:18.214Z,10.79
2019-03-29T00:08:21.531Z,10.97
2019-03-29T00:11:24.857Z,10.89
2019-03-29T00:14:28.192Z,10.72
2019-03-29T00:17:31.513Z,10.84
2019-03-29T00:20:34.836Z,10.69
2019-03-29T00:23:38.163Z,10.65
2019-03-29T00:26:41.482Z,10.90
2019-03-29T00:29:44.807Z,11.02
2019-03-29T00:32:48.133Z,11.07
2019-03-29T00:35:51.473Z,10.97
2019-03-29T00:38:54.796Z,10.97
2019-03-29T00:41:58.119Z,11.04
2019-03-29T00:45:01.485Z,11.12
2019-03-29T00:48:04.802Z,11.15
2019-03-29T00:51:08.145Z,10.95
2019-03-29T00:54:11.429Z,10.86
2019-03-29T00:57:14.759Z,10.97
2019-03-29T01:00:18.099Z,10.90
2019-03-29T01:03:21.436Z,10.89
2019-03-29T01:06:24.763Z,10.75
2019-03-29T01:09:28.090Z,10.75
2019-03-29T01:12:32.843Z,10.75
2019-03-29T01:15:36.320Z,10.85
2019-03-29T01:18:39.617Z,10.85
2019-03-29T01:21:43.003Z,10.81
2019-03-29T01:24:46.307Z,10.86
2019-03-29T01:27:49.633Z,10.75
2019-03-29T01:30:52.979Z,10.86
2019-03-29T01:33:56.373Z,10.68
2019-03-29T01:36:59.707Z,10.87
2019-03-29T01:40:03.579Z,10.81
2019-03-29T01:43:06.917Z,10.85
2019-03-29T01:46:10.292Z,10.96
2019-03-29T01:49:13.622Z,10.85
2019-03-29T01:52:16.971Z,10.85
2019-03-29T01:55:20.310Z,10.77
2019-03-29T01:58:24.357Z,10.77
2019-03-29T02:01:29.109Z,10.78
2019-03-29T02:04:32.512Z,11.06
2019-03-29T02:07:36.042Z,11.05
2019-03-29T02:10:39.957Z,11.01
2019-03-29T02:13:43.795Z,10.79
2019-03-29T02:16:47.161Z,10.66
2019-03-29T02:19:50.544Z,10.62
2019-03-29T02:22:53.900Z,10.69
2019-03-29T02:25:57.237Z,10.50
2019-03-29T02:29:00.570Z,10.54
2019-03-29T02:32:03.917Z,10.46
2019-03-29T02:35:07.885Z,10.50
2019-03-29T02:38:11.256Z,10.58
2019-03-29T02:41:14.559Z,10.56
2019-03-29T02:44:17.900Z,10.56
2019-03-29T02:47:21.681Z,10.56
2019-03-29T02:50:25.434Z,10.46
2019-03-29T02:53:28.796Z,10.43
2019-03-29T02:56:32.127Z,10.62
2019-03-29T02:59:35.457Z,10.50
2019-03-29T03:02:38.793Z,10.65
2019-03-29T03:05:42.110Z,10.73
2019-03-29T03:08:45.410Z,10.63
2019-03-29T03:11:48.702Z,10.52
2019-03-29T03:14:52.146Z,10.63
2019-03-29T03:17:55.414Z,10.68
2019-03-29T03:20:58.720Z,10.54
2019-03-29T03:24:02.148Z,10.67
2019-03-29T03:27:05.469Z,10.80
2019-03-29T03:30:10.235Z,10.79
2019-03-29T03:33:13.895Z,10.63
2019-03-29T03:36:17.195Z,10.34
2019-03-29T03:39:31.370Z,10.26
2019-03-29T03:42:25.631Z,10.52
2019-03-29T03:45:28.950Z,10.65
2019-03-29T03:48:32.259Z,10.58
2019-03-29T03:51:35.562Z,10.36
2019-03-29T03:54:38.874Z,10.37
2019-03-29T03:57:42.171Z,10.41
2019-03-29T04:00:53.648Z,10.56
2019-03-29T04:03:56.948Z,10.50
2019-03-29T04:07:00.407Z,10.51
2019-03-29T04:10:05.462Z,10.60
2019-03-29T04:13:08.765Z,10.43
2019-03-29T04:16:12.072Z,10.26
2019-03-29T04:19:15.398Z,10.13
2019-03-29T04:22:18.704Z,10.24
2019-03-29T04:25:22.221Z,10.27
2019-03-29T04:28:26.690Z,10.35
2019-03-29T04:31:29.985Z,10.37
2019-03-29T04:34:33.298Z,10.28
2019-03-29T04:37:36.586Z,10.35
2019-03-29T04:40:39.903Z,10.34
2019-03-29T04:43:43.202Z,10.20
2019-03-29T04:46:46.778Z,10.06
2019-03-29T04:49:50.079Z,10.03
2019-03-29T04:52:53.387Z,10.11
2019-03-29T04:55:57.607Z,10.16
2019-03-29T04:59:00.949Z,10.34
2019-03-29T05:02:04.277Z,10.41
2019-03-29T05:05:07.601Z,10.49
2019-03-29T05:08:10.893Z,10.41
2019-03-29T05:11:14.234Z,10.40
2019-03-29T05:14:17.566Z,10.33
2019-03-29T05:17:20.875Z,10.43
2019-03-29T05:20:24.256Z,10.60
2019-03-29T05:23:27.546Z,10.60
2019-03-29T05:26:30.929Z,10.61
2019-03-29T05:29:34.223Z,10.60
2019-03-29T05:32:37.531Z,10.44
2019-03-29T05:35:40.977Z,10.48
2019-03-29T05:38:44.392Z,10.67
2019-03-29T05:41:47.745Z,10.80
2019-03-29T05:44:51.025Z,10.72
2019-03-29T05:47:54.340Z,10.74
2019-03-29T05:50:57.664Z,10.76
2019-03-29T05:54:01.286Z,10.79
2019-03-29T05:57:05.096Z,10.89
2019-03-29T06:00:10.652Z,10.83
2019-03-29T06:03:14.007Z,10.75
2019-03-29T06:06:17.378Z,10.84
2019-03-29T06:09:20.746Z,10.40
2019-03-29T06:12:24.065Z,10.16
2019-03-29T06:15:27.370Z,10.13
2019-03-29T06:18:30.705Z,10.40
2019-03-29T06:21:34.010Z,10.65
2019-03-29T06:24:37.330Z,10.65
2019-03-29T06:27:40.636Z,10.80
2019-03-29T06:30:43.937Z,10.82
2019-03-29T06:33:47.446Z,10.90
2019-03-29T06:36:50.768Z,10.84
2019-03-29T06:39:54.084Z,10.67
2019-03-29T06:42:57.398Z,10.53
2019-03-29T06:46:00.772Z,10.63
2019-03-29T06:49:04.095Z,10.68
2019-03-29T06:52:07.404Z,10.93
2019-03-29T06:55:10.711Z,11.10
2019-03-29T06:58:14.014Z,11.11
2019-03-29T07:01:17.333Z,11.11
2019-03-29T07:04:20.645Z,11.12
2019-03-29T07:07:23.954Z,11.35
2019-03-29T07:10:27.323Z,11.21
2019-03-29T07:13:30.729Z,11.21
2019-03-29T07:16:34.261Z,11.24
2019-03-29T07:19:37.569Z,11.27
2019-03-29T07:22:40.929Z,11.01
2019-03-29T07:25:44.239Z,11.37
2019-03-29T07:28:47.577Z,10.85
2019-03-29T07:31:53.190Z,11.07
2019-03-29T07:34:55.925Z,10.91
2019-03-29T07:37:59.247Z,11.01
2019-03-29T07:41:02.626Z,11.03
2019-03-29T07:44:05.957Z,11.47
2019-03-29T07:47:09.320Z,11.57
2019-03-29T07:50:12.689Z,11.65
2019-03-29T07:53:15.986Z,11.71
2019-03-29T07:56:19.295Z,11.75
2019-03-29T07:59:23.360Z,11.77
2019-03-29T08:02:26.786Z,11.75
2019-03-29T08:05:30.102Z,11.84
2019-03-29T08:08:34.527Z,11.88
2019-03-29T08:11:46.118Z,11.94
2019-03-29T08:14:43.381Z,11.78
2019-03-29T08:17:46.696Z,11.78
2019-03-29T08:20:50.129Z,12.07
2019-03-29T08:23:53.435Z,12.12
2019-03-29T08:26:56.746Z,12.30
2019-03-29T08:30:00.095Z,12.30
2019-03-29T08:33:03.536Z,12.29
2019-03-29T08:36:06.855Z,12.33
2019-03-29T08:39:10.437Z,12.33
2019-03-29T08:42:13.735Z,12.45
2019-03-29T08:45:17.062Z,12.36
2019-03-29T08:48:20.359Z,12.72
2019-03-29T08:51:23.660Z,12.70
2019-03-29T08:54:26.961Z,13.12
2019-03-29T08:57:30.365Z,13.29
2019-03-29T09:00:33.746Z,13.59
2019-03-29T09:03:37.049Z,13.70
2019-03-29T09:06:52.455Z,13.70
2019-03-29T09:09:46.578Z,13.64
2019-03-29T09:12:49.978Z,13.69
2019-03-29T09:15:53.295Z,13.71
2019-03-29T09:18:56.657Z,13.43
2019-03-29T09:21:59.991Z,13.48
2019-03-29T09:25:03.754Z,13.47
2019-03-29T09:28:07.075Z,13.54
2019-03-29T09:31:10.586Z,13.59
2019-03-29T09:34:13.903Z,13.60
2019-03-29T09:37:18.568Z,13.93
2019-03-29T09:40:21.829Z,14.11
2019-03-29T09:43:26.769Z,14.27
2019-03-29T09:46:30.246Z,14.35
2019-03-29T09:49:33.581Z,14.42
2019-03-29T09:52:36.902Z,14.01
2019-03-29T09:55:40.197Z,13.40
2019-03-29T09:58:45.181Z,13.81
2019-03-29T10:01:48.728Z,13.95
2019-03-29T10:04:52.047Z,14.16
2019-03-29T10:07:55.386Z,14.32
2019-03-29T10:10:58.697Z,14.28
2019-03-29T10:14:02.025Z,14.25
2019-03-29T10:17:05.323Z,14.16
2019-03-29T10:20:08.662Z,14.10
2019-03-29T10:23:12.021Z,14.15
2019-03-29T10:26:15.314Z,13.69
2019-03-29T10:29:18.656Z,13.66
2019-03-29T10:32:21.976Z,13.18
2019-03-29T10:35:28.855Z,13.46
2019-03-29T10:38:32.339Z,13.81
2019-03-29T10:41:38.149Z,14.23
2019-03-29T10:44:40.739Z,14.53
2019-03-29T10:47:44.342Z,14.76
2019-03-29T10:50:47.658Z,14.58
2019-03-29T10:53:50.973Z,14.61
2019-03-29T10:56:54.309Z,14.81
2019-03-29T10:59:57.612Z,14.49
2019-03-29T11:03:00.911Z,14.80
2019-03-29T11:06:04.225Z,14.89
2019-03-29T11:09:08.535Z,15.16
2019-03-29T11:12:11.851Z,15.25
2019-03-29T11:15:15.159Z,15.34
2019-03-29T11:18:18.543Z,15.28
2019-03-29T11:21:21.903Z,14.69
2019-03-29T11:24:25.219Z,15.17
2019-03-29T11:27:28.628Z,15.99
2019-03-29T11:30:42.117Z,16.07
2019-03-29T11:33:37.061Z,15.61
2019-03-29T11:36:40.458Z,15.82
2019-03-29T11:39:43.764Z,15.27
2019-03-29T11:42:47.084Z,15.17
2019-03-29T11:45:55.615Z,14.51
2019-03-29T11:48:58.317Z,14.36
2019-03-29T11:52:01.668Z,14.62
2019-03-29T11:55:06.109Z,14.49
2019-03-29T11:58:09.456Z,14.54
2019-03-29T12:01:12.796Z,14.96
2019-03-29T12:04:16.152Z,14.97
2019-03-29T12:07:19.422Z,14.95
2019-03-29T12:10:22.747Z,15.39
2019-03-29T12:13:35.027Z,15.81
2019-03-29T12:16:31.134Z,16.11
2019-03-29T12:19:34.539Z,16.33
2019-03-29T12:22:38.028Z,16.44
2019-03-29T12:25:41.444Z,16.22
2019-03-29T12:28:44.838Z,16.96
2019-03-29T12:31:48.430Z,17.19
2019-03-29T12:34:51.825Z,18.24
2019-03-29T12:37:55.227Z,19.75
2019-03-29T12:40:58.630Z,22.46
2019-03-29T12:44:02.034Z,22.31
2019-03-29T12:47:05.425Z,23.22
2019-03-29T12:50:08.830Z,25.38
2019-03-29T12:53:12.223Z,25.26
2019-03-29T12:56:15.624Z,26.16
2019-03-29T12:59:19.025Z,26.18
2019-03-29T13:02:22.408Z,24.07
2019-03-29T13:05:25.813Z,21.88
2019-03-29T13:08:35.055Z,22.72
2019-03-29T13:11:42.431Z,23.51
2019-03-29T13:14:45.905Z,22.26
2019-03-29T13:17:49.289Z,21.71
2019-03-29T13:20:52.760Z,21.87
2019-03-29T13:23:56.143Z,20.52
2019-03-29T13:26:59.562Z,21.06
2019-03-29T13:30:02.970Z,19.10
2019-03-29T13:33:06.359Z,17.77
2019-03-29T13:36:09.762Z,16.86
2019-03-29T13:39:13.149Z,16.66
2019-03-29T13:42:16.543Z,16.29
2019-03-29T13:45:19.863Z,15.31
2019-03-29T13:48:23.242Z,15.73
2019-03-29T13:51:26.554Z,15.55
2019-03-29T13:54:29.867Z,15.50
2019-03-29T13:57:33.235Z,15.91
2019-03-29T14:00:36.542Z,15.50
2019-03-29T14:03:39.882Z,15.32
2019-03-29T14:06:43.217Z,15.30
2019-03-29T14:09:46.514Z,15.25
2019-03-29T14:12:49.837Z,15.11
2019-03-29T14:15:53.172Z,15.02
2019-03-29T14:18:56.502Z,15.24
2019-03-29T14:21:59.829Z,15.25
2019-03-29T14:25:03.149Z,14.97
2019-03-29T14:28:06.502Z,15.04
2019-03-29T14:32:38.030Z,15.17
2019-03-29T14:35:41.354Z,14.56
2019-03-29T14:38:44.686Z,14.69
2019-03-29T14:41:48.126Z,14.64
2019-03-29T14:44:52.993Z,14.81
2019-03-29T14:47:56.649Z,14.77
2019-03-29T14:50:59.957Z,14.72
2019-03-29T14:54:03.284Z,14.72
2019-03-29T14:57:06.612Z,14.46
2019-03-29T15:00:10.861Z,14.46
2019-03-29T15:03:14.201Z,14.55
2019-03-29T15:06:17.495Z,14.54
2019-03-29T15:09:20.812Z,14.53
2019-03-29T15:12:24.109Z,14.21
2019-03-29T15:15:27.440Z,13.93
2019-03-29T15:18:30.727Z,14.05
2019-03-29T15:21:34.100Z,13.90
2019-03-29T15:24:37.484Z,13.79
2019-03-29T15:27:40.782Z,13.75
2019-03-29T15:30:44.095Z,13.77
2019-03-29T15:33:47.499Z,13.76
2019-03-29T15:36:50.793Z,13.75
2019-03-29T15:39:54.131Z,13.69
2019-03-29T15:42:57.773Z,13.70
2019-03-29T15:46:02.015Z,13.59
2019-03-29T15:49:05.330Z,13.64
2019-03-29T15:52:08.639Z,13.59
2019-03-29T15:55:12.023Z,13.58
2019-03-29T15:58:15.294Z,13.67
2019-03-29T16:01:18.618Z,13.57
2019-03-29T16:04:21.910Z,13.61
2019-03-29T16:07:25.302Z,13.46
2019-03-29T16:10:28.607Z,13.48
2019-03-29T16:13:31.922Z,13.53
2019-03-29T16:16:35.262Z,13.56
2019-03-29T16:19:38.583Z,13.52
2019-03-29T16:22:41.959Z,13.45
2019-03-29T16:25:45.418Z,13.35
2019-03-29T16:28:48.731Z,13.32
2019-03-29T16:31:52.037Z,13.31
2019-03-29T16:34:55.332Z,13.14
2019-03-29T16:37:58.647Z,13.05
2019-03-29T16:41:01.947Z,13.00
2019-03-29T16:44:05.422Z,13.00
2019-03-29T16:47:08.756Z,12.95
2019-03-29T16:50:12.084Z,12.87
2019-03-29T16:53:15.455Z,12.87
2019-03-29T16:56:18.762Z,12.78
2019-03-29T16:59:22.084Z,12.63
2019-03-29T17:02:25.394Z,12.64
2019-03-29T17:05:28.865Z,12.63
2019-03-29T17:08:32.208Z,12.60
2019-03-29T17:11:35.657Z,12.61
2019-03-29T17:14:39.024Z,12.53
2019-03-29T17:17:42.348Z,12.51
2019-03-29T17:20:45.740Z,12.40
2019-03-29T17:23:52.423Z,12.36
2019-03-29T17:26:54.021Z,12.16
2019-03-29T17:29:57.326Z,11.99
2019-03-29T17:33:00.617Z,11.86
2019-03-29T17:36:04.004Z,11.73
2019-03-29T17:39:07.425Z,11.71
2019-03-29T17:42:10.759Z,11.60
2019-03-29T17:45:14.075Z,11.49
2019-03-29T17:48:17.368Z,11.39
2019-03-29T17:51:20.696Z,11.27
2019-03-29T17:54:23.992Z,11.17
2019-03-29T17:57:27.476Z,11.67
2019-03-29T18:00:30.791Z,11.47
2019-03-29T18:03:34.116Z,11.25
2019-03-29T18:06:37.516Z,11.08
2019-03-29T18:09:40.811Z,10.92
2019-03-29T18:12:44.133Z,12.12
2019-03-29T18:15:47.437Z,12.20
2019-03-29T18:18:50.786Z,11.72
2019-03-29T18:21:54.127Z,11.50
2019-03-29T18:24:57.552Z,11.15
2019-03-29T18:28:00.889Z,11.17
2019-03-29T18:31:04.204Z,11.53
2019-03-29T18:34:07.601Z,11.44
2019-03-29T18:37:10.990Z,11.07
2019-03-29T18:40:17.639Z,10.78
2019-03-29T18:43:20.964Z,10.55
2019-03-29T18:46:24.275Z,10.50
2019-03-29T18:49:27.563Z,10.47
2019-03-29T18:52:30.892Z,10.29
2019-03-29T18:55:34.342Z,10.17
2019-03-29T18:58:37.644Z,10.08
2019-03-29T19:01:41.084Z,10.07
2019-03-29T19:04:44.427Z,10.03
2019-03-29T19:07:47.743Z,9.94
2019-03-29T19:10:51.045Z,9.88
2019-03-29T19:13:54.375Z,9.89
2019-03-29T19:16:59.140Z,9.87
2019-03-29T19:20:03.903Z,9.87
2019-03-29T19:23:07.235Z,9.94
2019-03-29T19:26:10.581Z,9.76
2019-03-29T19:29:13.907Z,9.65
2019-03-29T19:32:17.213Z,9.64
2019-03-29T19:35:20.549Z,9.65
2019-03-29T19:38:23.875Z,9.58
2019-03-29T19:41:27.156Z,9.62
2019-03-29T19:44:30.468Z,9.63
2019-03-29T19:47:33.778Z,9.52
2019-03-29T19:50:37.091Z,9.51
2019-03-29T19:53:40.404Z,9.53
2019-03-29T19:56:43.727Z,9.45
2019-03-29T19:59:48.325Z,9.42
2019-03-29T20:02:52.068Z,9.35
2019-03-29T20:05:55.390Z,9.28
2019-03-29T20:09:01.041Z,9.18
2019-03-29T20:12:04.188Z,9.25
2019-03-29T20:15:07.557Z,9.34
2019-03-29T20:18:11.087Z,9.26
2019-03-29T20:21:14.411Z,9.21
2019-03-29T20:24:17.756Z,9.10
2019-03-29T20:27:21.205Z,9.05
2019-03-29T20:30:25.068Z,9.04
2019-03-29T20:33:28.378Z,9.13
2019-03-29T20:36:31.686Z,9.11
2019-03-29T20:39:35.064Z,9.16
2019-03-29T20:42:38.327Z,9.15
2019-03-29T20:45:41.640Z,9.13
2019-03-29T20:48:44.973Z,9.04
2019-03-29T20:51:48.277Z,9.08
2019-03-29T20:54:52.095Z,8.95
2019-03-29T20:57:55.434Z,9.00
2019-03-29T21:00:58.766Z,8.97
2019-03-29T21:04:02.282Z,9.01
2019-03-29T21:07:05.589Z,8.86
2019-03-29T21:10:09.035Z,8.83
2019-03-29T21:13:12.324Z,8.79
2019-03-29T21:16:15.680Z,8.84
2019-03-29T21:19:19.049Z,8.95
2019-03-29T21:22:23.983Z,8.87
2019-03-29T21:25:27.334Z,8.79
2019-03-29T21:28:30.711Z,8.76
2019-03-29T21:31:34.116Z,8.78
2019-03-29T21:34:37.454Z,8.73
2019-03-29T21:37:40.790Z,8.63
2019-03-29T21:40:44.126Z,8.55
2019-03-29T21:43:47.471Z,8.61
2019-03-29T21:46:50.796Z,8.62
2019-03-29T21:49:54.136Z,8.67
2019-03-29T21:52:57.441Z,8.54
2019-03-29T21:56:00.798Z,8.56
2019-03-29T21:59:04.144Z,8.56
2019-03-29T22:02:07.466Z,8.57
2019-03-29T22:05:10.908Z,8.42
2019-03-29T22:08:17.755Z,8.48
2019-03-29T22:11:19.536Z,8.39
2019-03-29T22:14:22.893Z,8.26
2019-03-29T22:17:26.284Z,8.21
2019-03-29T22:20:29.633Z,8.12
2019-03-29T22:23:33.528Z,8.13
2019-03-29T22:26:37.026Z,8.25
2019-03-29T22:29:40.646Z,8.32
2019-03-29T22:32:44.055Z,8.32
2019-03-29T22:35:47.406Z,8.34
2019-03-29T22:38:50.722Z,8.34
2019-03-29T22:41:54.041Z,8.33
2019-03-29T22:44:57.452Z,8.31
2019-03-29T22:48:03.015Z,8.29
2019-03-29T22:51:05.877Z,8.22
2019-03-29T22:54:09.217Z,8.32
2019-03-29T22:57:12.561Z,8.28
2019-03-29T23:00:26.632Z,8.17
2019-03-29T23:03:29.993Z,8.18
2019-03-29T23:06:37.627Z,8.16
2019-03-29T23:09:44.379Z,8.02
2019-03-29T23:12:52.216Z,7.97
2019-03-29T23:15:58.455Z,8.05
2019-03-29T23:19:06.694Z,8.04
2019-03-29T23:22:07.028Z,8.09
2019-03-29T23:25:10.373Z,8.13
2019-03-29T23:28:13.697Z,8.11
2019-03-29T23:31:17.019Z,8.03
2019-03-29T23:34:20.433Z,7.98
2019-03-29T23:37:23.782Z,7.92
2019-03-29T23:40:27.089Z,7.95
2019-03-29T23:43:30.426Z,7.95
2019-03-29T23:46:33.793Z,7.76
2019-03-29T23:49:37.225Z,7.70
2019-03-29T23:52:42.073Z,7.67
2019-03-29T23:55:45.416Z,7.63
2019-03-29T23:58:48.722Z,7.62
